createdAt,value
2017-12-17T00:00:12.838Z,19.77
2017-12-17T00:02:39.613Z,19.99
2017-12-17T00:05:06.410Z,20.08
2017-12-17T00:07:32.213Z,20.14
2017-12-17T00:09:58.854Z,20.17
2017-12-17T00:12:25.642Z,20.04
2017-12-17T00:14:52.461Z,19.89
2017-12-17T00:17:18.282Z,19.96
2017-12-17T00:19:45.046Z,19.97
2017-12-17T00:22:11.757Z,19.99
2017-12-17T00:24:38.522Z,20.06
2017-12-17T00:27:04.335Z,19.98
2017-12-17T00:29:30.939Z,19.76
2017-12-17T00:31:57.694Z,19.75
2017-12-17T00:34:23.529Z,19.91
2017-12-17T00:36:49.369Z,19.93
2017-12-17T00:39:16.187Z,19.95
2017-12-17T00:41:42.982Z,19.92
2017-12-17T00:44:08.805Z,19.70
2017-12-17T00:46:34.614Z,19.59
2017-12-17T00:49:00.423Z,19.70
2017-12-17T00:51:27.119Z,19.82
2017-12-17T00:53:53.862Z,19.87
2017-12-17T00:56:20.662Z,19.87
2017-12-17T00:58:47.671Z,19.78
2017-12-17T01:01:14.311Z,19.55
2017-12-17T01:03:40.114Z,19.67
2017-12-17T01:06:06.929Z,19.82
2017-12-17T01:08:33.688Z,19.85
2017-12-17T01:11:00.367Z,19.82
2017-12-17T01:13:26.218Z,19.81
2017-12-17T01:15:52.830Z,19.54
2017-12-17T01:18:19.613Z,19.75
2017-12-17T01:20:45.423Z,19.72
2017-12-17T01:23:11.227Z,19.86
2017-12-17T01:25:37.067Z,19.82
2017-12-17T01:28:03.843Z,19.75
2017-12-17T01:30:29.690Z,19.55
2017-12-17T01:32:55.495Z,19.69
2017-12-17T01:35:21.353Z,19.82
2017-12-17T01:37:47.162Z,19.86
2017-12-17T01:40:12.971Z,19.80
2017-12-17T01:42:38.778Z,19.69
2017-12-17T01:45:04.595Z,19.57
2017-12-17T01:47:30.415Z,19.62
2017-12-17T01:49:56.227Z,19.69
2017-12-17T01:52:22.034Z,19.82
2017-12-17T01:54:47.860Z,19.84
2017-12-17T01:57:13.681Z,19.64
2017-12-17T01:59:39.490Z,19.50
2017-12-17T02:02:05.302Z,19.53
2017-12-17T02:04:31.115Z,19.56
2017-12-17T02:06:56.927Z,19.68
2017-12-17T02:09:22.746Z,19.84
2017-12-17T02:11:48.726Z,20.04
2017-12-17T02:14:14.535Z,20.08
2017-12-17T02:16:41.166Z,20.10
2017-12-17T02:19:06.985Z,20.14
2017-12-17T02:21:32.811Z,19.89
2017-12-17T02:23:58.631Z,19.85
2017-12-17T02:26:24.446Z,20.00
2017-12-17T02:28:50.287Z,20.01
2017-12-17T02:31:16.107Z,20.01
2017-12-17T02:33:41.963Z,20.09
2017-12-17T02:36:07.782Z,20.11
2017-12-17T02:38:33.598Z,19.83
2017-12-17T02:41:02.272Z,19.85
2017-12-17T02:43:28.057Z,19.86
2017-12-17T02:45:53.867Z,19.93
2017-12-17T02:48:19.687Z,19.91
2017-12-17T02:50:45.563Z,19.94
2017-12-17T02:53:11.373Z,19.82
2017-12-17T02:55:37.182Z,19.62
2017-12-17T02:58:02.990Z,19.85
2017-12-17T03:00:28.841Z,19.78
2017-12-17T03:02:54.646Z,19.86
2017-12-17T03:05:20.516Z,19.84
2017-12-17T03:07:46.378Z,19.87
2017-12-17T03:10:12.185Z,19.59
2017-12-17T03:12:38.001Z,19.69
2017-12-17T03:15:03.814Z,19.76
2017-12-17T03:17:30.586Z,19.95
2017-12-17T03:19:56.398Z,19.77
2017-12-17T03:22:23.089Z,19.88
2017-12-17T03:24:48.950Z,19.61
2017-12-17T03:27:14.762Z,19.58
2017-12-17T03:29:41.498Z,19.72
2017-12-17T03:32:08.373Z,19.78
2017-12-17T03:34:34.186Z,19.83
2017-12-17T03:37:00.866Z,19.79
2017-12-17T03:39:26.719Z,19.66
2017-12-17T03:41:53.562Z,19.66
2017-12-17T03:44:19.387Z,19.69
2017-12-17T03:46:45.985Z,19.64
2017-12-17T03:49:11.841Z,19.77
2017-12-17T03:51:38.542Z,19.82
2017-12-17T03:54:05.345Z,19.65
2017-12-17T03:56:31.162Z,19.67
2017-12-17T03:58:57.008Z,19.66
2017-12-17T04:01:23.728Z,19.69
2017-12-17T04:03:50.680Z,19.75
2017-12-17T04:06:17.395Z,19.85
2017-12-17T04:08:44.158Z,19.64
2017-12-17T04:11:10.849Z,19.48
2017-12-17T04:13:36.664Z,19.66
2017-12-17T04:16:03.413Z,19.69
2017-12-17T04:18:30.153Z,19.94
2017-12-17T04:20:56.011Z,19.99
2017-12-17T04:23:22.755Z,20.06
2017-12-17T04:25:48.612Z,20.08
2017-12-17T04:28:14.411Z,19.96
2017-12-17T04:30:40.264Z,19.95
2017-12-17T04:33:06.120Z,19.97
2017-12-17T04:35:31.938Z,19.97
2017-12-17T04:37:57.746Z,20.06
2017-12-17T04:40:23.551Z,20.08
2017-12-17T04:42:50.172Z,20.01
2017-12-17T04:45:15.974Z,19.94
2017-12-17T04:47:42.725Z,19.76
2017-12-17T04:50:08.616Z,19.80
2017-12-17T04:52:35.504Z,19.84
2017-12-17T04:55:01.306Z,19.81
2017-12-17T04:57:27.113Z,19.89
2017-12-17T04:59:53.902Z,19.86
2017-12-17T05:02:19.726Z,19.65
2017-12-17T05:04:45.525Z,19.69
2017-12-17T05:07:11.390Z,19.76
2017-12-17T05:09:37.205Z,19.83
2017-12-17T05:12:03.016Z,19.91
2017-12-17T05:14:28.821Z,19.87
2017-12-17T05:16:54.630Z,19.68
2017-12-17T05:19:20.435Z,19.60
2017-12-17T05:21:46.247Z,19.66
2017-12-17T05:24:12.856Z,19.72
2017-12-17T05:26:38.655Z,19.68
2017-12-17T05:29:04.474Z,19.76
2017-12-17T05:31:30.287Z,19.77
2017-12-17T05:33:56.097Z,19.45
2017-12-17T05:36:21.922Z,19.65
2017-12-17T05:38:47.734Z,19.75
2017-12-17T05:41:13.551Z,19.75
2017-12-17T05:43:39.357Z,19.78
2017-12-17T05:46:05.174Z,19.83
2017-12-17T05:48:31.911Z,19.56
2017-12-17T05:50:57.774Z,19.54
2017-12-17T05:53:23.583Z,19.75
2017-12-17T05:55:49.401Z,19.69
2017-12-17T05:58:16.178Z,19.67
2017-12-17T06:00:42.000Z,19.74
2017-12-17T06:03:07.827Z,19.43
2017-12-17T06:05:34.578Z,19.38
2017-12-17T06:08:00.460Z,19.53
2017-12-17T06:10:26.338Z,19.71
2017-12-17T06:12:52.982Z,19.88
2017-12-17T06:15:18.885Z,19.97
2017-12-17T06:17:44.710Z,19.94
2017-12-17T06:20:10.634Z,19.95
2017-12-17T06:22:36.550Z,19.78
2017-12-17T06:25:02.511Z,19.81
2017-12-17T06:27:28.328Z,19.80
2017-12-17T06:29:55.099Z,19.89
2017-12-17T06:32:20.914Z,19.81
2017-12-17T06:34:46.723Z,19.85
2017-12-17T06:37:12.539Z,19.70
2017-12-17T06:39:38.353Z,19.50
2017-12-17T06:42:05.109Z,19.59
2017-12-17T06:44:30.934Z,19.66
2017-12-17T06:46:57.742Z,19.72
2017-12-17T06:49:24.540Z,19.80
2017-12-17T06:51:50.360Z,19.69
2017-12-17T06:54:17.119Z,19.45
2017-12-17T06:56:42.972Z,19.49
2017-12-17T06:59:08.813Z,19.77
2017-12-17T07:01:35.471Z,19.69
2017-12-17T07:04:01.440Z,19.49
2017-12-17T07:06:27.255Z,19.07
2017-12-17T07:08:53.894Z,19.18
2017-12-17T07:11:19.718Z,19.00
2017-12-17T07:13:46.490Z,18.40
2017-12-17T07:16:12.302Z,19.10
2017-12-17T07:18:38.964Z,19.30
2017-12-17T07:21:04.832Z,19.21
2017-12-17T07:23:31.520Z,19.25
2017-12-17T07:25:57.335Z,19.23
2017-12-17T07:28:23.142Z,19.49
2017-12-17T07:30:48.955Z,19.41
2017-12-17T07:33:14.774Z,19.38
2017-12-17T07:35:40.595Z,19.31
2017-12-17T07:38:06.418Z,19.45
2017-12-17T07:40:32.488Z,19.35
2017-12-17T07:42:58.327Z,19.38
2017-12-17T07:45:24.150Z,19.40
2017-12-17T07:47:50.122Z,19.41
2017-12-17T07:50:21.773Z,19.11
2017-12-17T07:52:48.069Z,19.46
2017-12-17T07:55:16.251Z,19.43
2017-12-17T07:57:42.186Z,19.42
2017-12-17T08:00:08.155Z,19.42
2017-12-17T08:02:34.006Z,19.08
2017-12-17T08:05:00.623Z,19.22
2017-12-17T08:12:45.461Z,19.69
2017-12-17T08:15:12.185Z,19.89
2017-12-17T08:17:39.686Z,19.73
2017-12-17T08:20:05.717Z,19.35
2017-12-17T08:22:32.470Z,18.26
2017-12-17T08:24:58.354Z,17.94
2017-12-17T08:27:25.039Z,17.66
2017-12-17T08:29:51.805Z,17.55
2017-12-17T08:32:18.342Z,17.56
2017-12-17T08:34:44.171Z,17.56
2017-12-17T08:37:10.065Z,17.30
2017-12-17T08:39:35.882Z,17.69
2017-12-17T08:42:01.694Z,18.53
2017-12-17T08:44:27.558Z,18.97
2017-12-17T08:46:53.387Z,19.18
2017-12-17T08:49:19.203Z,19.26
2017-12-17T08:51:45.969Z,19.33
2017-12-17T08:54:11.851Z,19.44
2017-12-17T08:56:37.668Z,19.41
2017-12-17T08:59:03.493Z,19.41
2017-12-17T09:01:29.314Z,19.63
2017-12-17T09:03:55.161Z,19.84
2017-12-17T09:06:20.974Z,19.60
2017-12-17T09:08:47.582Z,19.55
2017-12-17T09:11:13.409Z,19.75
2017-12-17T09:13:40.482Z,19.59
2017-12-17T09:16:06.325Z,19.88
2017-12-17T09:18:32.286Z,19.71
2017-12-17T09:20:58.145Z,19.65
2017-12-17T09:23:24.023Z,19.98
2017-12-17T09:25:49.967Z,19.64
2017-12-17T09:28:15.781Z,19.50
2017-12-17T09:30:41.605Z,19.55
2017-12-17T09:33:07.414Z,19.20
2017-12-17T09:35:33.358Z,19.26
2017-12-17T09:38:07.500Z,19.34
2017-12-17T09:40:33.494Z,19.49
2017-12-17T09:42:59.349Z,19.44
2017-12-17T09:45:25.212Z,19.52
2017-12-17T09:47:51.031Z,19.31
2017-12-17T09:50:16.847Z,19.51
2017-12-17T09:52:42.690Z,19.06
2017-12-17T09:55:08.511Z,19.27
2017-12-17T09:57:34.375Z,19.31
2017-12-17T10:00:00.201Z,19.53
2017-12-17T10:02:26.906Z,19.55
2017-12-17T10:04:52.782Z,19.48
2017-12-17T10:07:18.609Z,19.33
2017-12-17T10:09:44.422Z,19.46
2017-12-17T10:12:10.398Z,19.72
2017-12-17T10:14:36.432Z,19.77
2017-12-17T10:17:02.246Z,19.71
2017-12-17T10:19:29.081Z,19.69
2017-12-17T10:21:55.090Z,19.92
2017-12-17T10:24:20.910Z,20.00
2017-12-17T10:26:47.686Z,18.62
2017-12-17T10:29:13.959Z,17.85
2017-12-17T10:31:39.779Z,18.23
2017-12-17T10:34:05.600Z,19.15
2017-12-17T10:36:31.496Z,19.56
2017-12-17T10:38:57.359Z,19.47
2017-12-17T10:41:24.052Z,19.19
2017-12-17T10:43:49.949Z,19.64
2017-12-17T10:46:16.646Z,19.70
2017-12-17T10:48:43.627Z,19.75
2017-12-17T10:51:09.434Z,19.64
2017-12-17T10:53:38.659Z,19.47
2017-12-17T10:56:05.442Z,19.72
2017-12-17T10:58:31.395Z,19.73
2017-12-17T11:00:57.225Z,19.71
2017-12-17T11:03:23.250Z,19.30
2017-12-17T11:05:49.084Z,19.50
2017-12-17T11:08:14.907Z,19.68
2017-12-17T11:10:40.754Z,19.78
2017-12-17T11:13:06.586Z,19.59
2017-12-17T11:15:33.422Z,19.57
2017-12-17T11:17:59.247Z,19.37
2017-12-17T11:20:25.161Z,19.42
2017-12-17T11:22:50.978Z,19.42
2017-12-17T11:25:16.841Z,19.67
2017-12-17T11:27:43.045Z,19.64
2017-12-17T11:30:08.875Z,19.35
2017-12-17T11:32:34.703Z,19.22
2017-12-17T11:35:00.525Z,19.38
2017-12-17T11:37:27.222Z,19.39
2017-12-17T11:39:53.062Z,19.50
2017-12-17T11:42:18.895Z,19.55
2017-12-17T11:44:44.716Z,19.45
2017-12-17T11:47:10.563Z,19.25
2017-12-17T11:49:36.406Z,19.41
2017-12-17T11:52:02.256Z,19.64
2017-12-17T11:54:28.102Z,19.54
2017-12-17T11:56:53.918Z,19.34
2017-12-17T11:59:20.711Z,19.26
2017-12-17T12:01:46.532Z,19.14
2017-12-17T12:04:18.407Z,19.21
2017-12-17T12:06:44.668Z,19.44
2017-12-17T12:09:11.383Z,19.64
2017-12-17T12:11:38.118Z,19.73
2017-12-17T12:14:03.984Z,19.53
2017-12-17T12:16:29.814Z,19.44
2017-12-17T12:18:55.626Z,19.37
2017-12-17T12:21:21.445Z,19.41
2017-12-17T12:23:47.302Z,19.64
2017-12-17T12:26:13.119Z,19.77
2017-12-17T12:28:38.934Z,19.71
2017-12-17T12:31:05.754Z,19.54
2017-12-17T12:33:31.718Z,19.54
2017-12-17T12:36:09.351Z,19.63
2017-12-17T12:38:35.466Z,19.62
2017-12-17T12:41:01.291Z,19.76
2017-12-17T12:43:27.112Z,19.64
2017-12-17T12:45:52.943Z,19.44
2017-12-17T12:48:19.812Z,19.58
2017-12-17T12:50:45.629Z,19.61
2017-12-17T12:53:12.480Z,19.78
2017-12-17T12:55:39.161Z,19.83
2017-12-17T12:58:05.214Z,19.76
2017-12-17T13:00:31.098Z,19.51
2017-12-17T13:02:57.020Z,19.60
2017-12-17T13:05:22.942Z,19.67
2017-12-17T13:07:48.763Z,19.67
2017-12-17T13:10:14.622Z,19.61
2017-12-17T13:12:41.214Z,19.43
2017-12-17T13:15:07.066Z,19.56
2017-12-17T13:17:32.889Z,19.48
2017-12-17T13:19:58.757Z,19.49
2017-12-17T13:22:24.563Z,19.56
2017-12-17T13:24:51.419Z,19.35
2017-12-17T13:27:17.239Z,19.23
2017-12-17T13:29:44.007Z,19.29
2017-12-17T13:32:09.815Z,19.43
2017-12-17T13:34:35.795Z,19.67
2017-12-17T13:37:01.623Z,19.78
2017-12-17T13:39:27.439Z,19.81
2017-12-17T13:41:53.291Z,19.78
2017-12-17T13:44:19.248Z,19.70
2017-12-17T13:46:46.053Z,19.67
2017-12-17T13:49:11.986Z,19.59
2017-12-17T13:51:37.864Z,19.88
2017-12-17T13:54:04.608Z,19.64
2017-12-17T13:56:30.427Z,19.61
2017-12-17T13:58:56.268Z,19.43
2017-12-17T14:01:22.370Z,19.69
2017-12-17T14:03:48.191Z,19.70
2017-12-17T14:06:14.075Z,19.73
2017-12-17T14:08:40.785Z,19.75
2017-12-17T14:11:07.842Z,19.68
2017-12-17T14:13:34.744Z,19.43
2017-12-17T14:16:00.595Z,19.49
2017-12-17T14:18:26.415Z,19.54
2017-12-17T14:20:52.283Z,19.74
2017-12-17T14:23:18.398Z,19.75
2017-12-17T14:25:45.089Z,19.54
2017-12-17T14:28:10.962Z,19.64
2017-12-17T14:30:36.978Z,19.68
2017-12-17T14:33:02.852Z,19.73
2017-12-17T14:35:28.760Z,19.75
2017-12-17T14:37:54.870Z,19.47
2017-12-17T14:40:21.528Z,19.26
2017-12-17T14:42:47.373Z,19.47
2017-12-17T14:45:14.298Z,19.61
2017-12-17T14:47:40.904Z,19.66
2017-12-17T14:50:06.940Z,19.71
2017-12-17T14:52:32.783Z,19.36
2017-12-17T14:54:59.534Z,19.57
2017-12-17T14:57:25.352Z,19.68
2017-12-17T14:59:51.218Z,19.74
2017-12-17T15:02:17.055Z,19.68
2017-12-17T15:04:42.867Z,19.46
2017-12-17T15:07:08.699Z,19.33
2017-12-17T15:09:34.522Z,19.48
2017-12-17T15:12:01.435Z,19.48
2017-12-17T15:14:27.255Z,19.25
2017-12-17T15:16:53.071Z,19.13
2017-12-17T15:19:18.891Z,19.14
2017-12-17T15:21:44.705Z,19.33
2017-12-17T15:24:11.370Z,19.53
2017-12-17T15:26:38.214Z,19.72
2017-12-17T15:29:05.014Z,19.83
2017-12-17T15:31:31.826Z,19.75
2017-12-17T15:33:57.638Z,19.50
2017-12-17T15:36:23.505Z,19.65
2017-12-17T15:38:49.317Z,19.71
2017-12-17T15:41:15.176Z,19.73
2017-12-17T15:43:41.050Z,19.82
2017-12-17T15:46:06.878Z,19.78
2017-12-17T15:48:32.689Z,19.58
2017-12-17T15:50:58.503Z,19.54
2017-12-17T15:53:24.373Z,19.68
2017-12-17T15:55:50.185Z,19.66
2017-12-17T15:58:16.110Z,19.67
2017-12-17T16:00:41.939Z,19.58
2017-12-17T16:03:08.577Z,19.44
2017-12-17T16:05:34.402Z,19.21
2017-12-17T16:08:00.230Z,19.36
2017-12-17T16:10:26.050Z,19.39
2017-12-17T16:12:51.866Z,19.46
2017-12-17T16:15:17.679Z,19.45
2017-12-17T16:17:44.469Z,19.27
2017-12-17T16:20:11.277Z,19.24
2017-12-17T16:22:37.089Z,19.37
2017-12-17T16:25:02.962Z,19.52
2017-12-17T16:27:28.781Z,19.52
2017-12-17T16:29:54.630Z,19.50
2017-12-17T16:32:20.484Z,19.12
2017-12-17T16:34:47.136Z,19.11
2017-12-17T16:37:13.832Z,19.24
2017-12-17T16:39:39.679Z,19.34
2017-12-17T16:42:05.486Z,19.50
2017-12-17T16:44:31.350Z,19.30
2017-12-17T16:46:57.167Z,19.10
2017-12-17T16:49:22.986Z,19.35
2017-12-17T16:51:49.667Z,19.46
2017-12-17T16:54:15.626Z,19.62
2017-12-17T16:56:41.626Z,19.65
2017-12-17T16:59:07.663Z,19.30
2017-12-17T17:01:33.619Z,19.07
2017-12-17T17:03:59.499Z,19.09
2017-12-17T17:06:25.305Z,19.23
2017-12-17T17:08:51.106Z,19.48
2017-12-17T17:11:16.906Z,19.64
2017-12-17T17:13:42.724Z,19.76
2017-12-17T17:16:08.538Z,19.84
2017-12-17T17:18:34.390Z,19.78
2017-12-17T17:21:00.194Z,19.48
2017-12-17T17:23:26.012Z,19.54
2017-12-17T17:25:52.693Z,19.50
2017-12-17T17:28:18.550Z,19.60
2017-12-17T17:30:44.366Z,19.66
2017-12-17T17:33:10.354Z,19.71
2017-12-17T17:35:36.163Z,19.39
2017-12-17T17:38:01.970Z,19.58
2017-12-17T17:40:27.829Z,19.62
2017-12-17T17:42:53.640Z,19.67
2017-12-17T17:45:19.459Z,19.79
2017-12-17T17:47:46.152Z,19.77
2017-12-17T17:50:13.179Z,19.55
2017-12-17T17:52:38.990Z,19.52
2017-12-17T17:55:05.702Z,19.60
2017-12-17T17:57:31.574Z,19.71
2017-12-17T17:59:57.793Z,19.78
2017-12-17T18:02:23.790Z,19.67
2017-12-17T18:04:49.609Z,19.39
2017-12-17T18:07:16.222Z,19.54
2017-12-17T18:09:42.963Z,19.68
2017-12-17T18:12:08.774Z,19.71
2017-12-17T18:14:34.639Z,19.75
2017-12-17T18:17:00.495Z,19.75
2017-12-17T18:19:26.301Z,19.42
2017-12-17T18:21:52.107Z,19.49
2017-12-17T18:24:17.929Z,19.60
2017-12-17T18:26:43.742Z,19.69
2017-12-17T18:29:09.590Z,19.63
2017-12-17T18:31:35.470Z,19.53
2017-12-17T18:34:01.282Z,19.27
2017-12-17T18:36:27.930Z,19.53
2017-12-17T18:38:54.710Z,19.54
2017-12-17T18:41:20.550Z,19.60
2017-12-17T18:43:46.362Z,19.56
2017-12-17T18:46:12.175Z,19.06
2017-12-17T18:48:38.014Z,18.98
2017-12-17T18:51:03.818Z,19.53
2017-12-17T18:53:30.690Z,19.56
2017-12-17T18:55:56.509Z,19.37
2017-12-17T18:58:23.294Z,19.07
2017-12-17T19:00:49.119Z,18.98
2017-12-17T19:03:14.943Z,19.32
2017-12-17T19:05:41.630Z,19.57
2017-12-17T19:08:08.409Z,19.78
2017-12-17T19:10:34.218Z,19.82
2017-12-17T19:13:00.026Z,19.85
2017-12-17T19:15:25.850Z,19.72
2017-12-17T19:17:51.668Z,19.44
2017-12-17T19:20:18.558Z,19.63
2017-12-17T19:22:45.327Z,19.73
2017-12-17T19:25:12.124Z,19.74
2017-12-17T19:27:37.938Z,19.57
2017-12-17T19:30:03.763Z,19.66
2017-12-17T19:32:30.427Z,19.55
2017-12-17T19:34:57.200Z,19.60
2017-12-17T19:37:23.007Z,19.59
2017-12-17T19:39:48.836Z,19.54
2017-12-17T19:42:14.649Z,19.41
2017-12-17T19:44:40.463Z,19.55
2017-12-17T19:47:06.277Z,19.63
2017-12-17T19:49:32.091Z,19.70
2017-12-17T19:51:57.908Z,19.68
2017-12-17T19:54:23.720Z,19.56
2017-12-17T19:56:49.630Z,19.37
2017-12-17T19:59:16.302Z,19.42
2017-12-17T20:01:42.124Z,19.59
2017-12-17T20:04:08.221Z,19.55
2017-12-17T20:06:35.006Z,19.64
2017-12-17T20:09:01.862Z,19.69
2017-12-17T20:11:27.682Z,19.47
2017-12-17T20:13:54.319Z,19.34
2017-12-17T20:16:21.097Z,19.30
2017-12-17T20:18:46.929Z,19.52
2017-12-17T20:21:12.769Z,19.57
2017-12-17T20:23:39.450Z,19.60
2017-12-17T20:26:05.315Z,19.72
2017-12-17T20:28:31.197Z,19.81
2017-12-17T20:30:57.918Z,19.71
2017-12-17T20:33:23.750Z,19.67
2017-12-17T20:35:49.582Z,19.89
2017-12-17T20:38:15.395Z,19.80
2017-12-17T20:40:41.211Z,19.83
2017-12-17T20:43:07.062Z,19.73
2017-12-17T20:45:32.877Z,19.44
2017-12-17T20:47:58.734Z,19.27
2017-12-17T20:50:24.585Z,19.34
2017-12-17T20:52:50.465Z,19.53
2017-12-17T20:55:16.278Z,19.66
2017-12-17T20:57:42.094Z,19.46
2017-12-17T21:00:08.918Z,19.47
2017-12-17T21:02:35.540Z,19.46
2017-12-17T21:05:01.346Z,19.49
2017-12-17T21:07:28.083Z,19.57
2017-12-17T21:09:53.890Z,19.35
2017-12-17T21:12:20.490Z,19.14
2017-12-17T21:14:46.351Z,19.25
2017-12-17T21:17:12.169Z,19.50
2017-12-17T21:19:38.869Z,19.65
2017-12-17T21:22:04.674Z,19.62
2017-12-17T21:24:30.527Z,19.24
2017-12-17T21:26:57.325Z,19.27
2017-12-17T21:29:24.019Z,19.48
2017-12-17T21:31:50.706Z,19.46
2017-12-17T21:34:17.356Z,19.52
2017-12-17T21:36:43.164Z,19.16
2017-12-17T21:39:13.571Z,19.04
2017-12-17T21:41:40.290Z,19.16
2017-12-17T21:44:07.135Z,19.29
2017-12-17T21:46:33.859Z,19.58
2017-12-17T21:48:59.676Z,19.64
2017-12-17T21:51:26.702Z,19.72
2017-12-17T21:53:52.554Z,19.77
2017-12-17T21:56:18.717Z,19.59
2017-12-17T21:58:45.429Z,19.44
2017-12-17T22:01:11.233Z,19.62
2017-12-17T22:03:37.299Z,19.69
2017-12-17T22:06:03.779Z,19.70
2017-12-17T22:08:29.592Z,19.82
2017-12-17T22:10:57.416Z,19.59
2017-12-17T22:13:24.158Z,19.54
2017-12-17T22:15:52.243Z,19.65
2017-12-17T22:18:18.098Z,19.74
2017-12-17T22:20:45.664Z,19.70
2017-12-17T22:23:11.509Z,19.63
2017-12-17T22:25:38.181Z,19.34
2017-12-17T22:28:04.299Z,19.33
2017-12-17T22:30:31.254Z,19.51
2017-12-17T22:32:57.625Z,19.66
2017-12-17T22:35:23.910Z,19.65
2017-12-17T22:37:51.157Z,19.75
2017-12-17T22:40:17.807Z,19.38
2017-12-17T22:42:46.401Z,19.51
2017-12-17T22:45:12.338Z,19.49
2017-12-17T22:47:40.340Z,19.56
2017-12-17T22:50:06.216Z,19.60
2017-12-17T22:52:32.042Z,19.66
2017-12-17T22:54:57.853Z,19.29
2017-12-17T22:57:23.692Z,19.16
2017-12-17T22:59:51.985Z,19.41
2017-12-17T23:02:17.805Z,19.42
2017-12-17T23:04:43.633Z,19.48
2017-12-17T23:07:09.450Z,19.55
2017-12-17T23:09:35.266Z,19.33
2017-12-17T23:12:01.232Z,19.05
2017-12-17T23:14:27.055Z,19.36
2017-12-17T23:16:52.875Z,19.38
2017-12-17T23:19:18.687Z,19.39
2017-12-17T23:21:44.498Z,19.53
2017-12-17T23:24:10.316Z,19.25
2017-12-17T23:26:36.959Z,19.07
2017-12-17T23:29:03.749Z,19.26
2017-12-17T23:31:29.567Z,19.41
2017-12-17T23:33:55.384Z,19.36
2017-12-17T23:36:21.187Z,19.48
2017-12-17T23:38:47.042Z,19.02
2017-12-17T23:41:12.870Z,18.87
2017-12-17T23:43:38.685Z,18.92
2017-12-17T23:46:04.504Z,19.00
2017-12-17T23:48:30.362Z,19.22
2017-12-17T23:50:56.192Z,19.53
2017-12-17T23:53:22.018Z,19.64
2017-12-17T23:55:47.874Z,19.66
2017-12-17T23:58:14.692Z,19.39
